Time;durP1;ratioP1;P1;durP2;ratioP2;P2;SDS_P1;SDS_P2;PMS_P1;PMS_P2;Temp;Humidity;BMP_temperature;BMP_pressure;BME280_temperature;BME280_humidity;BME280_pressure;Samples;Min_cycle;Max_cycle;Signal;HPM_P1;HPM_P2
2022/12/28 00:01:11;;;;;;;12.20;2.83;;;;;;;;;;5033055;28;20522;-84
2022/12/28 00:03:36;;;;;;;5.60;2.47;;;;;;;;;;5034793;28;20080;-84
2022/12/28 00:06:02;;;;;;;5.90;3.03;;;;;;;;;;5032910;28;20029;-83
2022/12/28 00:08:27;;;;;;;6.87;2.80;;;;;;;;;;5033817;28;20013;-84
2022/12/28 00:10:54;;;;;;;8.00;2.97;;;;;;;;;;5032602;28;20022;-84
2022/12/28 00:13:19;;;;;;;9.07;3.03;;;;;;;;;;5032045;28;20144;-84
2022/12/28 00:15:45;;;;;;;11.63;3.20;;;;;;;;;;5033192;28;20108;-84
2022/12/28 00:18:10;;;;;;;7.60;3.00;;;;;;;;;;5032991;28;20124;-84
2022/12/28 00:20:35;;;;;;;6.87;2.70;;;;;;;;;;5032958;28;20017;-83
2022/12/28 00:23:04;;;;;;;5.13;2.60;;;;;;;;;;5032953;28;20021;-84
2022/12/28 00:25:29;;;;;;;8.80;2.87;;;;;;;;;;5033057;28;20025;-84
2022/12/28 00:27:54;;;;;;;7.57;3.13;;;;;;;;;;5032765;28;20029;-84
2022/12/28 00:30:19;;;;;;;5.60;2.70;;;;;;;;;;5031106;28;20441;-84
2022/12/28 00:32:44;;;;;;;5.40;2.60;;;;;;;;;;5032839;28;20060;-84
2022/12/28 00:35:10;;;;;;;7.67;2.53;;;;;;;;;;5032696;28;20052;-83
2022/12/28 00:37:35;;;;;;;5.93;2.70;;;;;;;;;;5019767;28;20022;-84
2022/12/28 00:40:00;;;;;;;5.53;2.60;;;;;;;;;;5049452;28;20049;-84
2022/12/28 00:42:25;;;;;;;7.23;2.77;;;;;;;;;;5049367;28;20098;-84
2022/12/28 00:44:51;;;;;;;7.57;2.67;;;;;;;;;;5048467;28;20099;-84
2022/12/28 00:47:16;;;;;;;7.93;2.67;;;;;;;;;;5049304;28;20018;-83
2022/12/28 00:49:41;;;;;;;4.10;2.37;;;;;;;;;;5033105;28;20080;-83
2022/12/28 00:52:06;;;;;;;10.10;2.90;;;;;;;;;;5048664;28;20541;-83
2022/12/28 00:54:31;;;;;;;5.47;2.77;;;;;;;;;;5049177;28;20034;-84
2022/12/28 00:56:57;;;;;;;10.13;2.97;;;;;;;;;;5033852;28;20025;-83
2022/12/28 00:59:22;;;;;;;5.67;2.70;;;;;;;;;;5048942;28;20100;-84
2022/12/28 01:01:47;;;;;;;6.67;3.20;;;;;;;;;;5045697;28;20035;-83
2022/12/28 01:04:12;;;;;;;3.63;2.37;;;;;;;;;;5032178;28;20025;-83
2022/12/28 01:06:38;;;;;;;7.80;2.40;;;;;;;;;;5048490;28;20164;-84
2022/12/28 01:09:04;;;;;;;6.53;2.60;;;;;;;;;;5049140;28;20473;-83
2022/12/28 01:11:29;;;;;;;5.07;2.30;;;;;;;;;;5043987;28;20166;-84
2022/12/28 01:13:56;;;;;;;8.50;2.47;;;;;;;;;;5048756;28;20021;-83
2022/12/28 01:16:23;;;;;;;6.00;2.57;;;;;;;;;;5047760;28;20029;-84
2022/12/28 01:18:50;;;;;;;5.60;2.20;;;;;;;;;;5048490;28;20025;-84
2022/12/28 01:21:17;;;;;;;6.47;3.17;;;;;;;;;;5048322;28;20039;-84
2022/12/28 01:23:42;;;;;;;6.53;2.60;;;;;;;;;;5048639;28;20017;-83
2022/12/28 01:26:08;;;;;;;6.37;2.53;;;;;;;;;;5048506;28;20779;-83
2022/12/28 01:28:33;;;;;;;8.17;2.30;;;;;;;;;;5047594;28;20488;-83
2022/12/28 01:31:06;;;;;;;6.37;2.37;;;;;;;;;;5032739;28;20464;-83
2022/12/28 01:33:32;;;;;;;4.43;2.43;;;;;;;;;;5033216;28;20072;-83
2022/12/28 01:35:57;;;;;;;4.50;1.70;;;;;;;;;;5030376;28;20454;-83
2022/12/28 01:38:22;;;;;;;6.67;2.30;;;;;;;;;;5037284;28;20390;-83
2022/12/28 01:40:47;;;;;;;5.93;2.10;;;;;;;;;;5048090;28;20067;-83
2022/12/28 01:43:13;;;;;;;10.87;2.63;;;;;;;;;;5048228;28;20013;-83
2022/12/28 01:45:38;;;;;;;5.43;2.40;;;;;;;;;;5047218;28;20068;-84
2022/12/28 01:48:04;;;;;;;6.23;2.70;;;;;;;;;;5047950;28;20024;-83
2022/12/28 01:50:29;;;;;;;4.63;2.43;;;;;;;;;;5032874;28;20022;-83
2022/12/28 01:52:56;;;;;;;4.50;2.20;;;;;;;;;;5047788;28;20017;-83
2022/12/28 01:55:26;;;;;;;7.77;2.50;;;;;;;;;;5047099;28;20036;-84
2022/12/28 01:57:51;;;;;;;8.60;3.13;;;;;;;;;;5047604;28;20357;-84
2022/12/28 02:00:17;;;;;;;4.37;2.70;;;;;;;;;;5047816;28;20100;-83
2022/12/28 02:02:45;;;;;;;6.30;2.30;;;;;;;;;;5047103;28;20056;-84
2022/12/28 02:05:11;;;;;;;4.90;2.33;;;;;;;;;;5032564;28;20017;-84
2022/12/28 02:07:42;;;;;;;4.27;2.03;;;;;;;;;;5031898;28;20044;-84
2022/12/28 02:10:08;;;;;;;6.63;2.47;;;;;;;;;;5022664;28;20364;-83
2022/12/28 02:12:34;;;;;;;5.43;2.53;;;;;;;;;;5031916;28;20051;-83
2022/12/28 02:15:00;;;;;;;6.33;1.93;;;;;;;;;;5047324;28;20061;-83
2022/12/28 02:17:25;;;;;;;5.50;2.47;;;;;;;;;;5020790;28;20046;-84
2022/12/28 02:19:50;;;;;;;5.63;2.40;;;;;;;;;;5043070;28;20303;-83
2022/12/28 02:22:28;;;;;;;5.27;2.27;;;;;;;;;;5047510;28;20089;-84
2022/12/28 02:25:12;;;;;;;5.70;2.27;;;;;;;;;;5045144;28;20401;-84
2022/12/28 02:27:43;;;;;;;4.80;2.83;;;;;;;;;;5036914;28;20127;-84
2022/12/28 02:30:10;;;;;;;6.45;2.47;;;;;;;;;;5047270;28;20075;-84
2022/12/28 02:32:38;;;;;;;8.00;2.20;;;;;;;;;;5031715;28;20025;-84
2022/12/28 02:35:10;;;;;;;7.67;2.83;;;;;;;;;;5047378;28;20076;-84
2022/12/28 02:37:38;;;;;;;11.27;3.67;;;;;;;;;;5029769;28;20109;-84
2022/12/28 02:40:07;;;;;;;8.57;2.53;;;;;;;;;;5031874;28;20392;-84
2022/12/28 02:42:33;;;;;;;6.67;2.67;;;;;;;;;;5027347;28;20030;-83
2022/12/28 02:50:35;;;;;;;4.70;2.70;;;;;;;;;;5031202;28;20037;-83
2022/12/28 02:53:00;;;;;;;7.23;2.60;;;;;;;;;;5031599;28;20360;-84
2022/12/28 02:58:31;;;;;;;6.33;3.10;;;;;;;;;;5031783;28;20120;-83
2022/12/28 03:00:56;;;;;;;4.60;2.63;;;;;;;;;;5031216;28;20444;-83
2022/12/28 03:03:30;;;;;;;6.37;2.73;;;;;;;;;;5046898;28;20041;-83
2022/12/28 03:08:55;;;;;;;4.68;2.25;;;;;;;;;;5031795;28;20036;-83
2022/12/28 03:11:32;;;;;;;6.27;2.60;;;;;;;;;;5017786;28;20411;-83
2022/12/28 03:14:02;;;;;;;5.10;2.50;;;;;;;;;;5046754;28;20474;-83
2022/12/28 03:16:30;;;;;;;6.00;2.73;;;;;;;;;;5042381;28;20022;-83
2022/12/28 03:32:44;;;;;;;7.13;2.77;;;;;;;;;;5031754;28;20044;-83
2022/12/28 03:35:09;;;;;;;3.97;1.70;;;;;;;;;;5045991;28;20021;-83
2022/12/28 03:37:42;;;;;;;9.37;2.60;;;;;;;;;;5030027;28;20087;-83
2022/12/28 03:40:13;;;;;;;7.67;2.47;;;;;;;;;;5029572;28;20053;-83
2022/12/28 03:45:35;;;;;;;7.03;2.72;;;;;;;;;;5031525;28;20109;-83
2022/12/28 03:48:01;;;;;;;4.70;2.30;;;;;;;;;;5046409;28;20075;-82
2022/12/28 03:50:27;;;;;;;6.37;2.30;;;;;;;;;;5046232;28;20438;-83
2022/12/28 03:52:52;;;;;;;3.73;2.37;;;;;;;;;;5045442;28;20127;-83
2022/12/28 03:55:17;;;;;;;4.73;2.23;;;;;;;;;;5029410;28;20120;-83
2022/12/28 03:57:43;;;;;;;6.77;2.50;;;;;;;;;;5030855;28;20017;-84
2022/12/28 04:00:09;;;;;;;4.10;2.20;;;;;;;;;;5046214;28;20048;-84
2022/12/28 04:02:34;;;;;;;5.73;2.00;;;;;;;;;;5031005;28;20553;-83
2022/12/28 04:05:00;;;;;;;5.27;2.47;;;;;;;;;;5046603;28;20052;-83
2022/12/28 04:07:25;;;;;;;6.35;3.05;;;;;;;;;;5031308;28;20096;-83
2022/12/28 04:09:50;;;;;;;5.10;2.30;;;;;;;;;;5029836;28;20370;-83
2022/12/28 04:12:15;;;;;;;4.85;2.33;;;;;;;;;;5045624;28;20021;-84
2022/12/28 04:14:40;;;;;;;3.80;2.20;;;;;;;;;;5045653;28;20117;-83
2022/12/28 04:17:06;;;;;;;4.87;2.17;;;;;;;;;;5037552;28;20038;-81
2022/12/28 04:19:31;;;;;;;4.20;2.03;;;;;;;;;;5029399;28;20128;-83
2022/12/28 04:21:56;;;;;;;4.68;1.98;;;;;;;;;;5045894;28;20009;-83
2022/12/28 04:24:21;;;;;;;8.30;2.63;;;;;;;;;;5046877;28;20021;-82
2022/12/28 04:26:46;;;;;;;6.47;2.70;;;;;;;;;;5048495;28;20018;-83
2022/12/28 04:29:12;;;;;;;6.47;2.43;;;;;;;;;;5049789;28;20075;-82
2022/12/28 04:31:37;;;;;;;8.60;2.20;;;;;;;;;;5049734;28;20083;-84
2022/12/28 04:34:03;;;;;;;4.83;2.37;;;;;;;;;;5034399;28;20454;-84
2022/12/28 04:36:28;;;;;;;4.63;2.40;;;;;;;;;;5033255;28;20246;-83
2022/12/28 04:38:53;;;;;;;4.83;2.10;;;;;;;;;;5049512;28;20045;-82
2022/12/28 04:41:18;;;;;;;4.83;2.20;;;;;;;;;;5032413;28;20353;-83
2022/12/28 04:43:44;;;;;;;5.60;2.80;;;;;;;;;;5032702;28;20051;-83
2022/12/28 04:46:10;;;;;;;6.30;2.70;;;;;;;;;;5049254;28;20018;-84
2022/12/28 04:48:36;;;;;;;4.27;2.10;;;;;;;;;;5049106;28;20017;-84
2022/12/28 04:51:20;;;;;;;4.73;2.43;;;;;;;;;;5048820;28;20014;-83
2022/12/28 04:53:45;;;;;;;3.30;2.13;;;;;;;;;;5048869;28;20016;-84
2022/12/28 04:56:12;;;;;;;5.27;1.60;;;;;;;;;;5047960;28;20021;-84
2022/12/28 04:58:37;;;;;;;4.70;2.20;;;;;;;;;;5032109;28;20025;-83
2022/12/28 05:01:03;;;;;;;5.07;2.23;;;;;;;;;;5048949;28;20381;-83
2022/12/28 05:03:28;;;;;;;6.93;2.20;;;;;;;;;;5048888;28;20029;-83
2022/12/28 05:05:53;;;;;;;3.47;2.07;;;;;;;;;;5048702;28;20075;-83
2022/12/28 05:08:19;;;;;;;6.63;2.17;;;;;;;;;;5048760;28;20018;-84
2022/12/28 05:10:44;;;;;;;7.20;2.20;;;;;;;;;;5037664;28;20052;-83
2022/12/28 05:13:09;;;;;;;4.53;2.10;;;;;;;;;;5032236;28;20033;-83
2022/12/28 05:15:36;;;;;;;3.77;1.50;;;;;;;;;;5031645;28;20517;-84
2022/12/28 05:18:01;;;;;;;5.73;1.97;;;;;;;;;;5034331;28;20343;-83
2022/12/28 05:20:26;;;;;;;2.77;1.70;;;;;;;;;;5033071;28;20032;-83
2022/12/28 05:22:52;;;;;;;3.43;2.00;;;;;;;;;;5048344;28;20026;-84
2022/12/28 05:25:17;;;;;;;5.03;1.80;;;;;;;;;;5033313;28;20199;-83
2022/12/28 05:27:42;;;;;;;2.87;1.50;;;;;;;;;;5031731;28;20025;-83
2022/12/28 05:30:07;;;;;;;5.17;1.93;;;;;;;;;;5031958;28;20115;-83
2022/12/28 05:32:33;;;;;;;6.37;1.93;;;;;;;;;;5047966;28;20030;-83
2022/12/28 05:34:58;;;;;;;4.43;1.50;;;;;;;;;;5048456;28;20112;-83
2022/12/28 05:37:23;;;;;;;3.00;1.80;;;;;;;;;;5046440;28;20052;-83
2022/12/28 05:39:48;;;;;;;3.50;1.90;;;;;;;;;;5048377;28;20018;-83
2022/12/28 05:42:13;;;;;;;6.73;1.80;;;;;;;;;;5032938;28;20087;-83
2022/12/28 05:44:39;;;;;;;5.67;1.87;;;;;;;;;;5047172;28;20022;-84
2022/12/28 05:47:04;;;;;;;5.13;1.63;;;;;;;;;;5047986;28;20064;-83
2022/12/28 05:49:29;;;;;;;3.67;1.50;;;;;;;;;;5048365;28;20051;-84
2022/12/28 05:51:54;;;;;;;4.43;1.77;;;;;;;;;;5032552;28;20053;-84
2022/12/28 05:54:19;;;;;;;4.70;1.90;;;;;;;;;;5048185;28;20116;-83
2022/12/28 05:56:45;;;;;;;5.30;2.10;;;;;;;;;;5047919;28;20037;-83
2022/12/28 05:59:12;;;;;;;4.97;1.67;;;;;;;;;;5047486;28;20036;-83
2022/12/28 06:01:38;;;;;;;6.23;2.30;;;;;;;;;;5031505;28;20026;-83
2022/12/28 06:04:05;;;;;;;4.50;1.70;;;;;;;;;;5048021;28;20091;-83
2022/12/28 06:06:31;;;;;;;6.03;1.77;;;;;;;;;;5047285;28;20021;-84
2022/12/28 06:08:56;;;;;;;6.63;1.60;;;;;;;;;;5032312;28;20021;-84
2022/12/28 06:11:22;;;;;;;3.87;1.70;;;;;;;;;;5047589;28;20114;-84
2022/12/28 06:13:48;;;;;;;5.37;1.70;;;;;;;;;;5047737;28;20045;-84
2022/12/28 06:16:17;;;;;;;4.13;1.80;;;;;;;;;;5015745;28;20551;-83
2022/12/28 06:18:43;;;;;;;3.17;1.80;;;;;;;;;;5020784;28;20442;-83
2022/12/28 06:21:12;;;;;;;4.07;1.70;;;;;;;;;;5046836;28;20104;-84
2022/12/28 06:23:38;;;;;;;3.23;1.70;;;;;;;;;;5047553;28;20014;-84
2022/12/28 06:26:04;;;;;;;3.67;1.60;;;;;;;;;;5032003;28;20466;-84
2022/12/28 06:28:29;;;;;;;3.23;1.50;;;;;;;;;;5032367;28;20548;-84
2022/12/28 06:31:21;;;;;;;4.37;1.70;;;;;;;;;;5031193;28;20032;-82
2022/12/28 06:33:47;;;;;;;2.90;1.50;;;;;;;;;;5019627;28;20037;-83
2022/12/28 06:36:14;;;;;;;4.13;1.60;;;;;;;;;;5047053;28;20018;-83
2022/12/28 06:38:39;;;;;;;5.00;1.60;;;;;;;;;;5032017;28;20436;-84
2022/12/28 06:41:06;;;;;;;6.37;1.87;;;;;;;;;;5031863;28;20049;-84
2022/12/28 06:43:32;;;;;;;7.43;1.77;;;;;;;;;;5047075;28;20014;-84
2022/12/28 06:45:57;;;;;;;6.00;2.63;;;;;;;;;;5045580;28;20367;-83
2022/12/28 06:48:22;;;;;;;6.60;2.03;;;;;;;;;;5030899;28;20064;-82
2022/12/28 06:50:57;;;;;;;5.30;2.30;;;;;;;;;;5046818;28;20489;-83
2022/12/28 06:53:23;;;;;;;5.37;2.30;;;;;;;;;;5047144;28;20030;-83
2022/12/28 06:55:52;;;;;;;5.00;2.17;;;;;;;;;;5047054;28;20055;-83
2022/12/28 06:58:18;;;;;;;6.07;1.97;;;;;;;;;;5047078;28;20026;-83
2022/12/28 07:00:43;;;;;;;3.07;2.07;;;;;;;;;;5046694;28;20018;-83
2022/12/28 07:03:08;;;;;;;7.73;2.40;;;;;;;;;;5030763;28;20037;-84
2022/12/28 07:05:33;;;;;;;7.23;3.10;;;;;;;;;;5046392;28;20483;-84
2022/12/28 07:07:58;;;;;;;8.83;3.57;;;;;;;;;;5047062;28;20028;-84
2022/12/28 07:10:23;;;;;;;7.73;3.87;;;;;;;;;;5035918;28;20026;-84
2022/12/28 07:12:49;;;;;;;7.87;2.87;;;;;;;;;;5032539;28;20474;-85
2022/12/28 07:15:14;;;;;;;5.35;2.03;;;;;;;;;;5031531;28;20022;-84
2022/12/28 07:17:39;;;;;;;6.37;2.07;;;;;;;;;;5020490;28;20067;-84
2022/12/28 07:20:04;;;;;;;7.67;3.03;;;;;;;;;;5028350;28;20017;-84
2022/12/28 07:22:30;;;;;;;9.40;2.93;;;;;;;;;;5046338;28;20095;-84
2022/12/28 07:24:55;;;;;;;8.40;2.70;;;;;;;;;;5046765;28;20047;-84
2022/12/28 07:27:20;;;;;;;13.37;3.40;;;;;;;;;;5031528;28;20021;-84
2022/12/28 07:29:45;;;;;;;8.63;2.87;;;;;;;;;;5031050;28;20365;-84
2022/12/28 07:32:10;;;;;;;7.00;2.77;;;;;;;;;;5046173;28;20021;-84
2022/12/28 07:34:36;;;;;;;8.70;2.53;;;;;;;;;;5045726;28;20022;-84
2022/12/28 07:37:01;;;;;;;5.47;2.70;;;;;;;;;;5046133;28;20105;-84
2022/12/28 07:39:26;;;;;;;6.73;2.63;;;;;;;;;;5046805;28;20027;-84
2022/12/28 07:41:51;;;;;;;7.70;3.20;;;;;;;;;;5031085;28;20104;-85
2022/12/28 07:44:16;;;;;;;9.00;3.03;;;;;;;;;;5046697;28;20078;-84
2022/12/28 07:46:42;;;;;;;13.90;3.23;;;;;;;;;;5046174;28;20018;-84
2022/12/28 07:49:07;;;;;;;7.97;3.00;;;;;;;;;;5046433;28;20022;-84
2022/12/28 07:51:34;;;;;;;4.30;2.87;;;;;;;;;;5045409;28;20041;-84
2022/12/28 07:53:59;;;;;;;8.80;2.43;;;;;;;;;;5046313;28;20025;-84
2022/12/28 07:56:25;;;;;;;11.00;2.77;;;;;;;;;;5046361;28;20041;-84
2022/12/28 07:58:51;;;;;;;7.73;2.43;;;;;;;;;;5031202;28;20489;-84
2022/12/28 08:01:18;;;;;;;7.53;2.83;;;;;;;;;;5033633;28;20601;-84
2022/12/28 08:03:43;;;;;;;10.63;2.43;;;;;;;;;;5049955;28;20429;-84
2022/12/28 08:06:19;;;;;;;5.83;2.67;;;;;;;;;;5049272;28;20106;-84
2022/12/28 08:08:45;;;;;;;7.70;2.27;;;;;;;;;;5050257;28;20120;-83
2022/12/28 08:11:12;;;;;;;8.45;2.55;;;;;;;;;;5039078;28;20017;-84
2022/12/28 08:13:38;;;;;;;6.53;2.23;;;;;;;;;;5050161;28;20335;-84
2022/12/28 08:16:04;;;;;;;5.17;2.00;;;;;;;;;;5032903;28;20536;-84
2022/12/28 08:18:29;;;;;;;6.03;2.17;;;;;;;;;;5038335;28;20116;-84
2022/12/28 08:20:58;;;;;;;4.07;2.00;;;;;;;;;;5034719;28;20014;-84
2022/12/28 08:23:23;;;;;;;4.97;1.70;;;;;;;;;;5034057;28;20036;-84
2022/12/28 08:25:49;;;;;;;4.83;1.70;;;;;;;;;;5027938;28;20120;-84
2022/12/28 08:28:14;;;;;;;3.67;2.07;;;;;;;;;;5030411;28;20520;-83
2022/12/28 08:30:39;;;;;;;7.07;2.57;;;;;;;;;;5025203;28;20033;-83
2022/12/28 08:33:04;;;;;;;1.93;1.33;;;;;;;;;;5033637;28;20434;-83
2022/12/28 08:35:29;;;;;;;4.60;2.10;;;;;;;;;;5044193;28;20029;-83
2022/12/28 08:37:55;;;;;;;7.60;2.20;;;;;;;;;;5026926;28;20473;-83
2022/12/28 08:40:21;;;;;;;6.10;2.57;;;;;;;;;;5027933;28;20026;-83
2022/12/28 08:42:46;;;;;;;5.40;2.30;;;;;;;;;;5026906;28;20018;-82
2022/12/28 08:45:11;;;;;;;7.00;2.33;;;;;;;;;;5030715;28;20018;-83
2022/12/28 08:47:37;;;;;;;5.90;2.50;;;;;;;;;;5016718;28;20101;-83
2022/12/28 08:50:02;;;;;;;5.70;1.77;;;;;;;;;;5042486;28;20045;-83
2022/12/28 08:52:30;;;;;;;4.23;1.93;;;;;;;;;;5029147;28;20060;-84
2022/12/28 08:54:55;;;;;;;3.03;1.97;;;;;;;;;;5031837;28;20029;-84
2022/12/28 08:57:21;;;;;;;5.82;2.30;;;;;;;;;;5031259;28;20492;-84
2022/12/28 08:59:46;;;;;;;4.55;2.38;;;;;;;;;;5026865;28;20026;-84
2022/12/28 09:02:12;;;;;;;4.80;2.40;;;;;;;;;;5041544;28;20036;-83
2022/12/28 09:04:37;;;;;;;5.10;2.30;;;;;;;;;;5031967;28;20041;-84
2022/12/28 09:07:02;;;;;;;7.13;2.17;;;;;;;;;;5031211;28;20043;-83
2022/12/28 09:09:27;;;;;;;4.57;2.70;;;;;;;;;;5043473;28;20037;-84
2022/12/28 09:11:52;;;;;;;5.23;2.47;;;;;;;;;;5015909;28;20041;-85
2022/12/28 09:14:18;;;;;;;5.70;2.53;;;;;;;;;;5027646;28;20350;-85
2022/12/28 09:16:43;;;;;;;7.05;2.90;;;;;;;;;;5033715;28;20473;-85
2022/12/28 09:19:12;;;;;;;5.90;2.20;;;;;;;;;;5031242;28;20025;-84
2022/12/28 09:21:37;;;;;;;8.50;2.50;;;;;;;;;;5034643;28;20021;-84
2022/12/28 09:24:03;;;;;;;7.63;2.73;;;;;;;;;;5030430;28;20021;-86
2022/12/28 09:26:32;;;;;;;6.85;2.08;;;;;;;;;;5030616;28;20026;-85
2022/12/28 09:28:58;;;;;;;6.97;2.30;;;;;;;;;;5030443;28;20385;-82
2022/12/28 09:31:25;;;;;;;5.47;2.90;;;;;;;;;;5034299;28;20028;-83
2022/12/28 09:34:00;;;;;;;3.43;2.13;;;;;;;;;;5018879;28;20417;-83
2022/12/28 09:36:36;;;;;;;5.53;2.77;;;;;;;;;;5021679;28;20022;-83
2022/12/28 09:39:02;;;;;;;6.13;2.90;;;;;;;;;;5047416;28;20033;-84
2022/12/28 09:41:37;;;;;;;5.10;2.67;;;;;;;;;;5027042;28;20547;-86
2022/12/28 09:44:21;;;;;;;7.87;2.83;;;;;;;;;;5024950;28;20021;-85
2022/12/28 09:47:11;;;;;;;6.90;2.65;;;;;;;;;;5027817;28;20021;-85
2022/12/28 09:49:50;;;;;;;4.43;2.50;;;;;;;;;;5027479;28;20076;-86
2022/12/28 09:52:30;;;;;;;4.73;2.07;;;;;;;;;;5051019;28;20353;-86
2022/12/28 09:54:57;;;;;;;7.90;2.40;;;;;;;;;;5022830;28;20021;-85
2022/12/28 09:57:24;;;;;;;5.63;2.75;;;;;;;;;;5029482;28;20056;-86
2022/12/28 09:59:51;;;;;;;4.80;2.63;;;;;;;;;;5025775;28;20057;-86
2022/12/28 10:02:28;;;;;;;5.20;2.45;;;;;;;;;;5038253;28;20032;-86
2022/12/28 10:04:53;;;;;;;9.25;3.55;;;;;;;;;;5028886;28;20026;-86
2022/12/28 10:07:19;;;;;;;6.23;2.80;;;;;;;;;;5033050;28;20772;-83
2022/12/28 10:09:44;;;;;;;7.53;2.70;;;;;;;;;;5032532;28;20025;-85
2022/12/28 10:12:12;;;;;;;5.22;2.60;;;;;;;;;;5038546;28;20022;-86
2022/12/28 10:14:37;;;;;;;6.57;3.25;;;;;;;;;;5036826;28;20061;-86
2022/12/28 10:17:05;;;;;;;9.48;3.45;;;;;;;;;;5040078;28;20033;-86
2022/12/28 10:19:30;;;;;;;6.95;3.35;;;;;;;;;;5041294;28;20041;-85
2022/12/28 10:22:03;;;;;;;6.07;2.60;;;;;;;;;;5027427;28;20013;-85
2022/12/28 10:24:29;;;;;;;4.07;2.40;;;;;;;;;;5024334;28;20032;-84
2022/12/28 10:26:56;;;;;;;9.73;3.17;;;;;;;;;;5027282;28;20025;-86
2022/12/28 10:29:22;;;;;;;6.10;2.40;;;;;;;;;;5043824;28;20501;-84
2022/12/28 10:32:01;;;;;;;4.40;2.35;;;;;;;;;;5036215;28;20191;-86
2022/12/28 10:34:28;;;;;;;4.60;2.45;;;;;;;;;;5045269;28;20529;-86
2022/12/28 10:36:53;;;;;;;7.78;2.60;;;;;;;;;;5046468;28;20442;-86
2022/12/28 10:39:28;;;;;;;7.80;2.50;;;;;;;;;;5028412;28;20025;-87
2022/12/28 10:41:54;;;;;;;8.53;2.87;;;;;;;;;;5043966;28;20422;-84
2022/12/28 10:44:22;;;;;;;4.68;2.20;;;;;;;;;;5044254;28;20328;-86
2022/12/28 10:46:53;;;;;;;2.60;0.45;;;;;;;;;;5024692;28;20018;-86
2022/12/28 10:49:19;;;;;;;4.70;2.20;;;;;;;;;;5029467;28;20025;-84
2022/12/28 10:51:57;;;;;;;3.60;1.92;;;;;;;;;;5021867;28;20052;-85
2022/12/28 10:54:23;;;;;;;7.35;2.20;;;;;;;;;;5023047;28;20067;-85
2022/12/28 10:56:49;;;;;;;8.00;2.25;;;;;;;;;;5023451;28;20649;-83
2022/12/28 10:59:18;;;;;;;8.02;2.05;;;;;;;;;;5032209;28;20148;-86
2022/12/28 11:01:44;;;;;;;3.13;1.92;;;;;;;;;;5038313;28;20053;-86
2022/12/28 11:04:25;;;;;;;4.55;2.17;;;;;;;;;;5031545;28;20018;-86
2022/12/28 11:06:53;;;;;;;4.00;1.90;;;;;;;;;;5041219;28;20104;-82
2022/12/28 11:09:23;;;;;;;6.07;2.42;;;;;;;;;;5038316;28;20478;-81
2022/12/28 11:11:49;;;;;;;5.28;2.00;;;;;;;;;;5048485;28;20018;-83
2022/12/28 11:14:37;;;;;;;3.42;1.42;;;;;;;;;;5026448;28;20049;-83
2022/12/28 11:17:19;;;;;;;3.10;1.50;;;;;;;;;;5034797;28;20049;-82
2022/12/28 11:19:45;;;;;;;4.18;1.65;;;;;;;;;;5040465;28;20059;-82
2022/12/28 11:22:12;;;;;;;6.28;1.85;;;;;;;;;;5049025;28;20057;-82
2022/12/28 11:24:39;;;;;;;6.25;1.73;;;;;;;;;;5031092;28;20041;-82
2022/12/28 11:27:04;;;;;;;7.50;1.80;;;;;;;;;;5046662;28;20491;-83
2022/12/28 11:29:29;;;;;;;11.05;3.47;;;;;;;;;;5040674;28;20021;-84
2022/12/28 11:32:07;;;;;;;9.88;3.30;;;;;;;;;;5028078;28;20067;-83
2022/12/28 11:34:33;;;;;;;11.35;3.10;;;;;;;;;;5027656;28;20025;-83
2022/12/28 11:36:59;;;;;;;7.65;2.78;;;;;;;;;;5024853;28;20029;-83
2022/12/28 11:39:24;;;;;;;5.53;2.13;;;;;;;;;;5048505;28;20041;-82
2022/12/28 11:41:51;;;;;;;4.90;1.90;;;;;;;;;;5043182;28;20448;-81
2022/12/28 11:44:28;;;;;;;3.90;2.15;;;;;;;;;;5028085;28;20381;-81
2022/12/28 11:46:59;;;;;;;6.30;1.25;;;;;;;;;;5030242;28;20476;-81
2022/12/28 11:49:26;;;;;;;9.02;1.60;;;;;;;;;;5048342;28;20028;-81
2022/12/28 11:52:10;;;;;;;5.97;1.45;;;;;;;;;;5039182;28;20402;-81
2022/12/28 11:54:36;;;;;;;6.70;1.67;;;;;;;;;;5035790;28;20028;-82
2022/12/28 11:57:02;;;;;;;4.80;1.65;;;;;;;;;;5039238;28;20017;-80
2022/12/28 11:59:31;;;;;;;5.28;1.30;;;;;;;;;;5038007;28;20026;-81
2022/12/28 12:01:59;;;;;;;6.30;1.60;;;;;;;;;;5053138;28;20236;-81
2022/12/28 12:04:28;;;;;;;4.95;1.55;;;;;;;;;;5031861;28;20116;-82
2022/12/28 12:06:53;;;;;;;4.20;1.40;;;;;;;;;;5032352;28;20505;-82
2022/12/28 12:09:28;;;;;;;2.70;1.20;;;;;;;;;;5043229;28;20164;-82
2022/12/28 12:11:54;;;;;;;10.52;1.23;;;;;;;;;;5040673;28;20032;-81
2022/12/28 12:14:31;;;;;;;5.47;1.83;;;;;;;;;;5044312;28;20044;-81
2022/12/28 12:17:01;;;;;;;4.57;1.83;;;;;;;;;;5047218;28;20032;-82
2022/12/28 12:19:31;;;;;;;8.57;1.95;;;;;;;;;;5030712;28;20076;-81
2022/12/28 12:22:09;;;;;;;7.35;1.92;;;;;;;;;;5034313;28;20029;-81
2022/12/28 12:24:40;;;;;;;9.02;1.92;;;;;;;;;;5046489;28;20036;-81
2022/12/28 12:27:13;;;;;;;6.70;1.75;;;;;;;;;;5047265;28;20021;-81
2022/12/28 12:29:39;;;;;;;7.10;1.75;;;;;;;;;;5047040;28;20026;-81
2022/12/28 12:32:21;;;;;;;6.07;1.88;;;;;;;;;;5042290;28;20136;-81
2022/12/28 12:34:52;;;;;;;2.80;1.35;;;;;;;;;;5019781;28;20029;-81
2022/12/28 12:37:36;;;;;;;5.22;1.70;;;;;;;;;;5029056;28;20173;-81
2022/12/28 12:40:04;;;;;;;8.10;2.03;;;;;;;;;;5039055;28;20037;-81
2022/12/28 12:42:29;;;;;;;5.28;1.30;;;;;;;;;;5031653;28;20083;-82
2022/12/28 12:45:04;;;;;;;9.88;1.52;;;;;;;;;;5035790;28;20024;-82
2022/12/28 12:47:35;;;;;;;6.90;2.05;;;;;;;;;;5038951;28;20076;-83
2022/12/28 12:50:16;;;;;;;8.23;2.00;;;;;;;;;;5044055;28;20405;-82
2022/12/28 12:52:52;;;;;;;5.03;1.40;;;;;;;;;;5037706;28;20021;-82
2022/12/28 12:55:29;;;;;;;3.85;1.50;;;;;;;;;;5045704;28;20112;-82
2022/12/28 12:57:57;;;;;;;6.22;1.40;;;;;;;;;;5022000;28;20038;-80
2022/12/28 13:00:25;;;;;;;5.60;1.73;;;;;;;;;;5041381;28;20021;-83
2022/12/28 13:02:56;;;;;;;7.40;1.58;;;;;;;;;;5036501;28;20159;-81
2022/12/28 13:05:23;;;;;;;12.38;1.67;;;;;;;;;;5046048;28;20101;-81
2022/12/28 13:07:49;;;;;;;6.70;1.60;;;;;;;;;;5033442;28;20059;-83
2022/12/28 13:10:25;;;;;;;7.38;1.63;;;;;;;;;;5045287;28;20017;-82
2022/12/28 13:12:51;;;;;;;10.07;1.67;;;;;;;;;;5043241;28;20100;-81
2022/12/28 13:15:17;;;;;;;5.95;2.17;;;;;;;;;;5042820;28;20341;-81
2022/12/28 13:18:02;;;;;;;5.22;1.90;;;;;;;;;;5028319;28;20030;-81
2022/12/28 13:20:27;;;;;;;4.28;1.02;;;;;;;;;;5049698;28;20026;-81
2022/12/28 13:22:53;;;;;;;5.07;2.30;;;;;;;;;;5027944;28;20116;-82
2022/12/28 13:25:22;;;;;;;8.38;2.08;;;;;;;;;;5032476;28;20125;-80
2022/12/28 13:27:47;;;;;;;4.03;1.45;;;;;;;;;;5047849;28;20465;-81
2022/12/28 13:30:17;;;;;;;6.22;1.42;;;;;;;;;;5031797;28;20017;-82
2022/12/28 13:32:48;;;;;;;7.15;1.60;;;;;;;;;;5039489;28;20061;-81
2022/12/28 13:35:17;;;;;;;4.70;1.40;;;;;;;;;;5046458;28;20116;-81
2022/12/28 13:37:42;;;;;;;6.47;1.95;;;;;;;;;;5031184;28;20096;-81
2022/12/28 13:40:09;;;;;;;4.78;1.38;;;;;;;;;;5047857;28;20158;-81
2022/12/28 13:42:43;;;;;;;3.10;1.20;;;;;;;;;;5056520;28;20021;-82
2022/12/28 13:45:12;;;;;;;6.28;1.40;;;;;;;;;;5048301;28;20148;-82
2022/12/28 13:47:39;;;;;;;3.65;1.50;;;;;;;;;;5054299;28;20079;-82
2022/12/28 13:50:04;;;;;;;6.13;1.13;;;;;;;;;;5031815;28;20450;-82
2022/12/28 13:52:34;;;;;;;4.53;1.55;;;;;;;;;;5050020;28;20077;-81
2022/12/28 13:55:03;;;;;;;11.82;1.70;;;;;;;;;;5037114;28;20021;-81
2022/12/28 13:57:30;;;;;;;7.43;1.63;;;;;;;;;;5030529;28;20069;-82
2022/12/28 13:59:56;;;;;;;4.35;1.20;;;;;;;;;;5032578;28;20466;-81
2022/12/28 14:02:22;;;;;;;4.90;1.38;;;;;;;;;;5058835;28;20104;-81
2022/12/28 14:04:48;;;;;;;5.40;1.50;;;;;;;;;;5040623;28;20028;-81
2022/12/28 14:07:14;;;;;;;5.75;1.50;;;;;;;;;;5053619;28;20431;-81
2022/12/28 14:09:40;;;;;;;5.65;1.60;;;;;;;;;;5042032;28;20097;-82
2022/12/28 14:12:05;;;;;;;5.50;1.55;;;;;;;;;;5054843;28;20372;-82
2022/12/28 14:14:31;;;;;;;6.95;1.65;;;;;;;;;;5035835;28;20025;-81
2022/12/28 14:16:56;;;;;;;6.93;2.03;;;;;;;;;;5027760;28;20018;-82
2022/12/28 14:19:28;;;;;;;4.13;1.10;;;;;;;;;;5088095;28;20702;-81
2022/12/28 14:21:53;;;;;;;6.05;1.50;;;;;;;;;;5068747;28;20039;-80
2022/12/28 14:24:18;;;;;;;10.38;2.67;;;;;;;;;;5067974;28;20029;-80
2022/12/28 14:26:48;;;;;;;10.88;2.25;;;;;;;;;;5077539;28;20058;-80
2022/12/28 14:29:26;;;;;;;4.43;1.20;;;;;;;;;;5066985;28;20020;-81
2022/12/28 14:32:02;;;;;;;9.43;1.50;;;;;;;;;;5079195;28;20024;-81
2022/12/28 14:34:29;;;;;;;8.43;1.77;;;;;;;;;;5079971;28;20025;-81
2022/12/28 14:36:54;;;;;;;5.72;1.35;;;;;;;;;;5071437;28;20028;-81
2022/12/28 14:39:33;;;;;;;7.68;1.52;;;;;;;;;;5077254;28;20035;-81
2022/12/28 14:41:59;;;;;;;4.95;1.27;;;;;;;;;;5058465;28;20437;-81
2022/12/28 14:44:38;;;;;;;7.32;1.98;;;;;;;;;;5062712;28;20104;-80
2022/12/28 14:47:22;;;;;;;3.38;1.35;;;;;;;;;;5097907;28;20346;-80
2022/12/28 14:49:47;;;;;;;3.72;1.60;;;;;;;;;;5065861;28;20036;-80
2022/12/28 14:52:15;;;;;;;5.75;1.75;;;;;;;;;;5065961;28;20025;-80
2022/12/28 14:54:43;;;;;;;3.17;1.33;;;;;;;;;;5066550;28;20475;-80
2022/12/28 14:57:31;;;;;;;3.55;1.42;;;;;;;;;;5067517;28;20013;-80
2022/12/28 14:59:59;;;;;;;7.10;1.30;;;;;;;;;;5063461;28;20451;-81
2022/12/28 15:02:34;;;;;;;3.85;1.50;;;;;;;;;;5064869;28;20055;-80
2022/12/28 15:04:59;;;;;;;7.47;1.80;;;;;;;;;;5064868;28;20013;-80
2022/12/28 15:07:24;;;;;;;5.18;1.23;;;;;;;;;;5063918;28;20051;-80
2022/12/28 15:09:50;;;;;;;5.63;1.60;;;;;;;;;;5061474;28;20090;-82
2022/12/28 15:12:16;;;;;;;1.00;0.65;;;;;;;;;;5064537;28;20529;-80
2022/12/28 15:14:41;;;;;;;3.95;1.50;;;;;;;;;;5064302;28;20143;-80